Time;durP1;ratioP1;P1;durP2;ratioP2;P2;SDS_P1;SDS_P2;PMS_P1;PMS_P2;Temp;Humidity;BMP_temperature;BMP_pressure;BME280_temperature;BME280_humidity;BME280_pressure;Samples;Min_cycle;Max_cycle;Signal;HPM_P1;HPM_P2
2021/07/27 00:00:31;;;;;;;7.30;4.80;;;;;;;23.26;62.10;99841.84;4931105;28;98096;-79
2021/07/27 00:03:01;;;;;;;5.70;4.45;;;;;;;23.11;62.55;99836.13;4914357;28;101660;-79
2021/07/27 00:05:28;;;;;;;5.18;4.13;;;;;;;22.96;63.08;99845.59;4899046;28;96670;-80
2021/07/27 00:07:53;;;;;;;7.30;4.50;;;;;;;23.03;63.00;99844.84;4914850;28;96955;-79
2021/07/27 00:10:19;;;;;;;7.60;4.70;;;;;;;23.02;63.01;99845.84;4915001;28;98062;-79
2021/07/27 00:12:45;;;;;;;8.13;4.60;;;;;;;22.97;63.16;99837.41;4914355;28;101030;-84
2021/07/27 00:15:11;;;;;;;10.68;5.00;;;;;;;22.98;63.21;99846.28;4914006;28;97077;-83
2021/07/27 00:17:37;;;;;;;5.28;4.53;;;;;;;22.96;63.40;99851.78;4914986;28;97024;-80
2021/07/27 00:20:03;;;;;;;7.03;4.28;;;;;;;22.98;63.37;99851.63;4914007;28;99843;-79
2021/07/27 00:22:28;;;;;;;6.55;4.68;;;;;;;22.98;63.30;99849.81;4898672;28;100909;-80
2021/07/27 00:24:54;;;;;;;8.93;4.85;;;;;;;22.97;63.55;99853.47;4931793;28;96892;-80
2021/07/27 00:27:20;;;;;;;13.40;4.50;;;;;;;22.85;63.83;99849.22;4934566;28;97281;-79
2021/07/27 00:29:45;;;;;;;10.35;4.75;;;;;;;22.83;63.92;99849.38;4917921;28;98105;-86
2021/07/27 00:32:11;;;;;;;6.07;4.45;;;;;;;22.81;63.84;99837.97;4918255;28;100363;-79
2021/07/27 00:34:37;;;;;;;10.45;4.60;;;;;;;22.77;63.92;99839.22;4918468;28;96949;-79
2021/07/27 00:37:03;;;;;;;8.68;5.00;;;;;;;22.76;64.26;99831.38;4917283;28;96956;-80
2021/07/27 00:39:28;;;;;;;5.60;4.30;;;;;;;22.89;63.80;99836.41;4933413;28;101411;-79
2021/07/27 00:41:54;;;;;;;5.30;4.80;;;;;;;22.71;64.40;99831.78;4932742;28;101147;-79
2021/07/27 00:44:19;;;;;;;11.70;4.32;;;;;;;22.63;64.78;99833.47;4934285;28;97069;-79
2021/07/27 00:46:45;;;;;;;5.45;4.45;;;;;;;22.62;64.79;99839.81;4934006;28;97333;-85
2021/07/27 00:49:11;;;;;;;9.07;4.40;;;;;;;22.69;64.52;99841.78;4917312;28;101161;-80
2021/07/27 00:51:36;;;;;;;5.63;4.50;;;;;;;22.65;64.89;99842.19;4933994;28;97508;-79
2021/07/27 00:54:02;;;;;;;7.15;4.75;;;;;;;22.72;64.54;99827.25;4933441;28;97032;-79
2021/07/27 00:56:27;;;;;;;7.40;4.50;;;;;;;22.68;64.63;99837.41;4934376;28;96968;-79
2021/07/27 00:58:53;;;;;;;6.88;4.47;;;;;;;22.74;64.50;99834.16;4917222;28;101392;-79
2021/07/27 01:01:19;;;;;;;6.35;4.93;;;;;;;22.60;64.98;99837.25;4934053;28;101016;-79
2021/07/27 01:03:45;;;;;;;5.63;4.38;;;;;;;22.50;65.40;99837.28;4933392;28;97421;-79
2021/07/27 01:06:11;;;;;;;9.07;4.72;;;;;;;22.59;65.16;99847.13;4933388;28;97103;-79
2021/07/27 01:08:37;;;;;;;7.07;4.85;;;;;;;22.60;65.08;99845.28;4934032;28;97673;-79
2021/07/27 01:11:03;;;;;;;11.25;4.90;;;;;;;22.53;65.23;99844.19;4933355;28;97522;-79
2021/07/27 01:13:29;;;;;;;7.18;5.90;;;;;;;22.55;65.19;99851.06;4933697;28;96578;-79
2021/07/27 01:15:59;;;;;;;7.70;4.95;;;;;;;22.51;65.28;99841.63;4933222;28;97021;-80
2021/07/27 01:18:28;;;;;;;9.03;5.03;;;;;;;22.55;65.33;99839.53;4917519;28;101178;-78
2021/07/27 01:39:50;;;;;;;11.02;5.32;;;;;;;22.27;65.90;99839.38;4933393;28;98237;-85
2021/07/27 01:42:18;;;;;;;9.00;4.85;;;;;;;22.29;65.65;99848.09;4932559;28;98252;-79
2021/07/27 01:44:47;;;;;;;11.30;4.35;;;;;;;22.29;65.72;99844.59;4933771;28;97170;-79
2021/07/27 01:47:22;;;;;;;7.18;4.53;;;;;;;22.31;65.51;99839.94;4933243;28;97221;-79
2021/07/27 01:49:49;;;;;;;7.75;4.40;;;;;;;22.32;65.35;99841.63;4933354;28;97956;-79
2021/07/27 01:52:15;;;;;;;7.88;4.35;;;;;;;22.22;65.74;99832.75;4933099;28;97354;-79
2021/07/27 01:54:41;;;;;;;6.63;4.75;;;;;;;22.22;65.53;99838.09;4932650;28;97355;-79
2021/07/27 01:57:10;;;;;;;9.60;5.15;;;;;;;22.24;65.39;99836.13;4932616;28;97310;-79
2021/07/27 01:59:40;;;;;;;7.05;4.45;;;;;;;22.20;65.33;99848.09;4932698;28;98529;-79
2021/07/27 02:02:06;;;;;;;9.57;5.18;;;;;;;22.11;65.77;99853.25;4931720;28;101869;-79
2021/07/27 02:04:32;;;;;;;7.65;5.13;;;;;;;22.18;65.36;99860.75;4932883;28;96709;-79
2021/07/27 02:06:58;;;;;;;9.00;4.80;;;;;;;22.08;65.67;99858.03;4931665;28;96883;-80
2021/07/27 02:09:24;;;;;;;11.95;5.30;;;;;;;22.15;65.43;99862.66;4932466;28;101272;-79
2021/07/27 02:11:55;;;;;;;7.47;4.28;;;;;;;21.93;65.93;99858.41;4933005;28;97452;-79
2021/07/27 02:14:23;;;;;;;7.18;4.93;;;;;;;21.90;66.11;99861.34;4932822;28;96595;-79
2021/07/27 02:16:49;;;;;;;6.95;4.68;;;;;;;21.91;65.90;99875.56;4933247;28;96942;-79
2021/07/27 02:19:14;;;;;;;9.73;4.10;;;;;;;21.95;66.15;99866.28;4932341;28;97395;-79
2021/07/27 02:21:40;;;;;;;8.43;4.30;;;;;;;21.93;65.84;99860.22;4932548;28;100919;-79
2021/07/27 02:24:05;;;;;;;7.32;4.40;;;;;;;21.74;66.40;99869.03;4932226;28;97171;-79
2021/07/27 02:26:31;;;;;;;8.50;5.15;;;;;;;;;;4932746;28;97091;-79
2021/07/27 02:28:56;;;;;;;11.02;4.72;;;;;;;21.72;66.43;99862.97;4932319;28;100830;-82
2021/07/27 02:31:28;;;;;;;8.45;5.45;;;;;;;21.67;66.59;99866.06;4932524;28;98193;-79
2021/07/27 02:33:53;;;;;;;9.35;4.50;;;;;;;21.62;66.76;99862.94;4933970;28;96654;-79
2021/07/27 02:36:19;;;;;;;9.73;4.25;;;;;;;21.73;66.08;99859.34;4916275;28;96938;-79
2021/07/27 02:38:46;;;;;;;12.52;5.50;;;;;;;21.68;66.33;99858.88;4902488;28;101948;-80
2021/07/27 02:41:12;;;;;;;13.20;5.68;;;;;;;21.66;66.36;99867.00;4915487;28;97894;-79
2021/07/27 02:43:37;;;;;;;10.57;5.03;;;;;;;21.61;66.95;99858.59;4915385;28;97561;-79
2021/07/27 02:46:03;;;;;;;7.85;4.55;;;;;;;21.73;66.22;99861.13;4931686;28;96975;-79
2021/07/27 02:48:28;;;;;;;7.88;4.95;;;;;;;21.75;66.12;99860.03;4930905;28;101823;-79
2021/07/27 02:51:01;;;;;;;11.13;4.68;;;;;;;21.72;65.79;99867.47;4932099;28;101409;-79
2021/07/27 02:53:30;;;;;;;11.10;5.25;;;;;;;21.60;66.51;99858.69;4932554;28;96650;-79
2021/07/27 02:55:57;;;;;;;9.45;5.07;;;;;;;21.67;66.11;99858.03;4916225;28;96852;-79
2021/07/27 02:58:23;;;;;;;10.70;4.90;;;;;;;21.53;66.79;99858.41;4952668;28;101227;-79
2021/07/27 03:00:48;;;;;;;12.43;5.03;;;;;;;21.52;66.77;99856.69;4931901;28;101786;-79
2021/07/27 03:03:14;;;;;;;10.05;5.22;;;;;;;21.61;66.71;99853.25;4915145;28;97061;-79
2021/07/27 03:05:39;;;;;;;13.10;5.60;;;;;;;21.65;66.45;99860.00;4932059;28;97141;-79
2021/07/27 03:08:10;;;;;;;14.30;5.85;;;;;;;21.60;66.45;99854.19;4930994;28;101578;-80
2021/07/27 03:10:35;;;;;;;;;;;;;;;21.50;66.70;99852.47;4916850;28;101064;-79
2021/07/27 03:13:01;;;;;;;6.80;4.88;;;;;;;21.65;66.50;99864.50;4931675;28;96626;-84
2021/07/27 03:15:29;;;;;;;10.20;5.75;;;;;;;21.66;66.41;99868.84;4916129;28;96674;-79
2021/07/27 03:17:56;;;;;;;16.27;5.43;;;;;;;21.66;66.26;99872.34;4915861;28;101068;-79
2021/07/27 03:20:22;;;;;;;16.17;5.88;;;;;;;21.61;66.52;99881.75;4898642;28;101443;-80
2021/07/27 03:22:52;;;;;;;10.43;5.72;;;;;;;21.66;66.37;99876.84;4895945;28;97249;-79
2021/07/27 03:25:18;;;;;;;9.50;6.03;;;;;;;21.56;66.56;99879.50;4896332;28;97074;-80
2021/07/27 03:27:46;;;;;;;11.50;5.50;;;;;;;21.60;66.53;99880.06;4912492;28;101367;-79
2021/07/27 03:30:13;;;;;;;12.27;5.15;;;;;;;21.62;66.25;99886.97;4911994;28;98381;-79
2021/07/27 03:32:38;;;;;;;14.55;5.85;;;;;;;21.61;66.36;99887.09;4911919;28;98220;-79
2021/07/27 03:35:05;;;;;;;11.23;5.55;;;;;;;21.74;66.11;99895.72;4896655;28;96762;-80
2021/07/27 03:37:34;;;;;;;15.38;5.78;;;;;;;21.64;66.26;99898.38;4880780;28;101371;-79
2021/07/27 03:40:00;;;;;;;20.27;5.32;;;;;;;21.63;66.40;99907.34;4915120;28;101637;-83
2021/07/27 03:42:26;;;;;;;11.45;5.35;;;;;;;21.67;66.43;99903.44;4894890;28;96925;-80
2021/07/27 03:44:56;;;;;;;12.20;5.25;;;;;;;21.72;65.97;99916.38;4895778;28;97069;-79
2021/07/27 03:47:21;;;;;;;14.77;5.35;;;;;;;21.72;66.34;99908.38;4895205;28;101232;-79
2021/07/27 03:49:47;;;;;;;11.38;5.90;;;;;;;21.77;66.01;99910.66;4912376;28;101330;-79
2021/07/27 03:52:12;;;;;;;13.95;5.32;;;;;;;21.84;65.54;99915.31;4927976;28;96941;-79
2021/07/27 03:54:38;;;;;;;11.80;6.30;;;;;;;21.75;65.88;99916.09;4896070;28;96868;-79
2021/07/27 03:57:04;;;;;;;14.35;5.55;;;;;;;21.73;66.09;99928.78;4895023;28;101326;-84
2021/07/27 03:59:30;;;;;;;10.10;4.95;;;;;;;21.73;65.91;99917.22;4911627;28;101327;-79
2021/07/27 04:01:56;;;;;;;16.65;5.70;;;;;;;21.78;65.72;99925.69;4926052;28;97454;-79
2021/07/27 04:04:21;;;;;;;14.25;5.60;;;;;;;21.80;65.77;99921.06;4949853;28;97165;-80
2021/07/27 04:06:47;;;;;;;12.95;5.43;;;;;;;21.78;65.53;99915.84;4950422;28;100932;-79
2021/07/27 04:09:13;;;;;;;11.07;4.95;;;;;;;21.72;65.64;99923.56;4933846;28;101435;-79
2021/07/27 04:11:38;;;;;;;10.82;5.40;;;;;;;21.76;65.76;99922.28;4934384;28;97138;-79
2021/07/27 04:14:05;;;;;;;12.77;5.07;;;;;;;21.79;65.48;99924.72;4950669;28;96881;-86
2021/07/27 04:16:31;;;;;;;17.65;5.07;;;;;;;21.79;65.48;99927.41;4934227;28;101478;-79
2021/07/27 04:18:56;;;;;;;10.98;4.85;;;;;;;21.80;65.33;99915.72;4934215;28;101676;-79
2021/07/27 04:21:22;;;;;;;15.57;5.28;;;;;;;21.81;65.05;99926.25;4933579;28;96655;-79
2021/07/27 04:23:48;;;;;;;17.42;5.50;;;;;;;21.78;65.33;99931.88;4918053;28;97473;-79
2021/07/27 04:26:13;;;;;;;12.43;6.20;;;;;;;21.79;65.17;99932.75;4966137;28;101228;-80
2021/07/27 04:28:39;;;;;;;10.60;4.80;;;;;;;21.85;65.29;99941.06;4966348;28;101750;-79
2021/07/27 04:31:04;;;;;;;12.55;5.25;;;;;;;21.94;64.78;99931.41;4933741;28;96628;-85
2021/07/27 04:33:29;;;;;;;22.55;4.70;;;;;;;21.90;64.59;99941.50;4933886;28;96930;-79
2021/07/27 04:35:55;;;;;;;12.95;5.05;;;;;;;21.90;64.60;99937.97;4966248;28;101177;-79
2021/07/27 04:38:24;;;;;;;12.75;5.88;;;;;;;21.92;64.56;99942.19;4949896;28;101332;-79
2021/07/27 04:40:50;;;;;;;12.27;4.75;;;;;;;21.89;64.49;99937.13;4950196;28;96934;-79
2021/07/27 04:43:16;;;;;;;21.17;4.95;;;;;;;21.87;64.96;99931.06;4933186;28;96624;-79
2021/07/27 04:45:41;;;;;;;12.85;4.38;;;;;;;21.90;64.77;99929.94;4933288;28;100876;-79
2021/07/27 04:48:07;;;;;;;11.13;4.25;;;;;;;21.94;64.55;99928.72;4949648;28;101111;-85
2021/07/27 04:50:32;;;;;;;12.75;4.28;;;;;;;22.02;64.32;99925.34;4966637;28;96596;-79
2021/07/27 04:53:10;;;;;;;15.30;4.63;;;;;;;22.08;63.96;99928.34;4949985;28;96855;-79
2021/07/27 04:55:36;;;;;;;9.15;4.70;;;;;;;22.13;64.02;99936.78;4949894;28;101742;-76
2021/07/27 04:58:03;;;;;;;12.48;4.75;;;;;;;22.08;64.18;99931.03;4917520;28;101642;-75
2021/07/27 05:00:28;;;;;;;13.30;5.03;;;;;;;22.13;64.31;99936.78;4932225;28;96624;-76
2021/07/27 05:02:55;;;;;;;13.88;4.47;;;;;;;22.20;64.16;99934.47;4965848;28;96916;-75
2021/07/27 05:05:21;;;;;;;9.55;4.22;;;;;;;22.35;63.88;99937.59;4948386;28;98167;-76
2021/07/27 05:07:46;;;;;;;16.17;4.88;;;;;;;22.40;64.01;99921.13;4949244;28;98190;-76
2021/07/27 05:10:13;;;;;;;15.00;4.55;;;;;;;22.69;63.21;99940.78;4931501;28;97130;-77
2021/07/27 05:12:38;;;;;;;13.80;5.60;;;;;;;22.81;62.93;99934.28;4934966;28;97129;-76
2021/07/27 05:15:05;;;;;;;14.05;4.97;;;;;;;22.96;62.42;99945.47;4919035;28;101978;-76
2021/07/27 05:17:31;;;;;;;14.30;5.63;;;;;;;22.95;62.35;99951.81;4915089;28;101601;-76
2021/07/27 05:19:56;;;;;;;12.40;6.93;;;;;;;22.87;62.67;99956.13;4906070;28;98041;-76
2021/07/27 05:22:25;;;;;;;16.67;6.45;;;;;;;23.09;62.36;99947.84;4921439;28;97574;-76
2021/07/27 05:24:51;;;;;;;14.25;5.75;;;;;;;23.21;61.96;99953.88;4921138;28;97417;-75
2021/07/27 05:27:17;;;;;;;18.90;5.93;;;;;;;23.46;61.32;99955.13;4908582;28;101203;-76
2021/07/27 05:29:42;;;;;;;13.73;4.72;;;;;;;23.78;60.27;99957.47;4931331;28;97451;-76
2021/07/27 05:32:08;;;;;;;19.25;6.18;;;;;;;24.11;58.72;99953.38;4930801;28;97343;-80
2021/07/27 05:34:33;;;;;;;15.38;4.43;;;;;;;24.72;58.66;99956.47;4913855;28;101530;-76
2021/07/27 05:36:59;;;;;;;14.45;5.82;;;;;;;25.25;56.71;99953.81;4891066;28;101606;-76
2021/07/27 05:39:25;;;;;;;15.63;4.80;;;;;;;25.68;55.38;99962.00;4930094;28;97183;-77
2021/07/27 05:41:50;;;;;;;13.25;4.80;;;;;;;26.22;54.53;99973.41;4906805;28;97186;-76
2021/07/27 05:44:16;;;;;;;18.73;4.60;;;;;;;26.78;53.33;99960.31;4930138;28;101440;-77
2021/07/27 05:46:41;;;;;;;16.42;4.13;;;;;;;27.30;51.66;99960.88;4898760;28;101275;-76
2021/07/27 05:49:10;;;;;;;10.85;4.75;;;;;;;27.51;50.94;99959.53;4906640;28;97049;-77
2021/07/27 05:51:35;;;;;;;13.20;4.45;;;;;;;27.97;49.82;99957.94;4891204;28;96847;-77
2021/07/27 05:54:01;;;;;;;7.97;4.00;;;;;;;28.43;49.09;99968.06;4898615;28;100999;-76
2021/07/27 05:56:26;;;;;;;14.65;4.40;;;;;;;28.76;48.29;99962.47;4889745;28;100932;-77
2021/07/27 05:58:53;;;;;;;9.07;3.85;;;;;;;29.04;47.12;99971.78;4919570;28;97067;-76
2021/07/27 06:01:18;;;;;;;11.38;4.18;;;;;;;29.18;46.82;99958.50;4928353;28;97137;-76
2021/07/27 06:03:44;;;;;;;8.70;3.45;;;;;;;29.39;46.47;99965.94;4920668;28;101305;-76
2021/07/27 06:06:09;;;;;;;11.55;4.03;;;;;;;29.03;47.29;99964.69;4906033;28;100810;-81
2021/07/27 06:08:35;;;;;;;12.43;4.28;;;;;;;29.43;46.28;99965.34;4930546;28;97167;-78
2021/07/27 06:11:04;;;;;;;9.60;4.25;;;;;;;29.69;45.97;99970.38;4904290;28;96984;-77
2021/07/27 06:13:29;;;;;;;11.18;4.38;;;;;;;31.39;42.97;99962.06;4921686;28;98525;-77
2021/07/27 06:15:55;;;;;;;14.48;4.00;;;;;;;31.76;42.13;99966.25;4924874;28;100939;-79
2021/07/27 06:18:20;;;;;;;11.55;4.00;;;;;;;31.17;42.84;99968.50;4929659;28;97426;-76
2021/07/27 06:20:46;;;;;;;11.27;4.45;;;;;;;31.20;43.03;99970.81;4930485;28;96948;-77
2021/07/27 06:23:12;;;;;;;12.75;4.35;;;;;;;31.65;42.10;99972.25;4923915;28;102642;-82
2021/07/27 06:25:37;;;;;;;9.05;3.78;;;;;;;33.14;38.40;99974.41;4882330;28;101376;-76
2021/07/27 06:28:05;;;;;;;12.27;3.42;;;;;;;33.65;37.85;99978.41;4929342;28;96973;-77
2021/07/27 06:30:30;;;;;;;10.75;4.28;;;;;;;34.00;37.53;99976.22;4928601;28;97603;-76
2021/07/27 06:32:57;;;;;;;8.98;3.60;;;;;;;34.56;36.03;99983.84;4877170;28;100976;-76
2021/07/27 06:35:23;;;;;;;6.88;3.25;;;;;;;35.12;35.40;99976.81;4892877;28;101874;-76
2021/07/27 06:37:48;;;;;;;16.05;4.10;;;;;;;35.37;34.63;99972.22;4920261;28;97215;-76
2021/07/27 06:40:14;;;;;;;12.23;3.72;;;;;;;35.82;33.46;99973.91;4928524;28;97170;-81
2021/07/27 06:42:39;;;;;;;10.52;3.42;;;;;;;36.07;33.99;99968.41;4909946;28;102066;-77
2021/07/27 06:45:06;;;;;;;6.60;3.10;;;;;;;35.70;34.05;99968.38;4929104;28;98176;-77
2021/07/27 06:47:31;;;;;;;11.93;3.33;;;;;;;35.38;34.76;99964.88;4927546;28;97003;-77
2021/07/27 06:49:57;;;;;;;8.27;2.97;;;;;;;35.45;34.48;99965.63;4927880;28;97608;-77
2021/07/27 06:52:22;;;;;;;12.70;3.30;;;;;;;35.28;34.50;99968.06;4927553;28;101365;-78
2021/07/27 06:54:48;;;;;;;7.05;3.45;;;;;;;35.33;34.86;99961.97;4928585;28;101200;-77
2021/07/27 06:57:13;;;;;;;6.85;3.25;;;;;;;36.38;33.18;99959.22;4927391;28;97301;-81
2021/07/27 06:59:39;;;;;;;5.45;2.95;;;;;;;36.06;33.40;99961.28;4930816;28;96904;-80
2021/07/27 07:02:05;;;;;;;8.82;3.65;;;;;;;35.90;33.64;99959.97;4931289;28;98208;-80
2021/07/27 07:04:30;;;;;;;7.32;3.67;;;;;;;35.32;34.11;99958.41;4926438;28;101134;-79
2021/07/27 07:06:56;;;;;;;7.03;3.58;;;;;;;36.06;33.01;99952.28;4912203;28;96670;-80
2021/07/27 07:09:23;;;;;;;6.65;3.03;;;;;;;34.89;34.17;99969.19;4911773;28;97053;-82
2021/07/27 07:11:49;;;;;;;6.97;3.53;;;;;;;34.82;34.64;99960.19;4927614;28;101279;-80
2021/07/27 07:14:15;;;;;;;5.68;3.53;;;;;;;35.47;33.81;99974.44;4910946;28;100717;-84
2021/07/27 07:16:40;;;;;;;7.60;3.50;;;;;;;35.60;33.49;99966.13;4912002;28;97167;-80
2021/07/27 07:19:06;;;;;;;6.60;3.22;;;;;;;35.05;33.91;99965.13;4911530;28;97249;-79
2021/07/27 07:21:31;;;;;;;6.22;3.25;;;;;;;34.50;34.44;99957.41;4934202;28;101343;-79
2021/07/27 07:23:57;;;;;;;7.30;3.00;;;;;;;34.48;34.63;99957.66;4929780;28;98083;-79
2021/07/27 07:26:22;;;;;;;5.57;2.72;;;;;;;34.76;33.91;99952.91;4911581;28;96797;-80
2021/07/27 07:28:48;;;;;;;7.38;3.45;;;;;;;35.82;32.82;99943.88;4896765;28;97299;-79
2021/07/27 07:31:16;;;;;;;6.90;3.08;;;;;;;36.33;32.59;99950.88;4919225;28;101294;-79
2021/07/27 07:33:42;;;;;;;5.53;3.42;;;;;;;36.91;31.66;99944.81;4903719;28;101665;-81
2021/07/27 07:36:12;;;;;;;6.45;3.10;;;;;;;36.50;32.06;99949.16;4899815;28;97518;-79
2021/07/27 07:38:39;;;;;;;7.07;3.03;;;;;;;36.44;31.88;99949.25;4907634;28;97493;-78
2021/07/27 07:41:09;;;;;;;10.18;3.17;;;;;;;36.14;32.40;99941.88;4896034;28;101282;-79
2021/07/27 07:43:35;;;;;;;6.40;3.30;;;;;;;36.29;32.23;99940.66;4927386;28;101497;-79
2021/07/27 07:46:01;;;;;;;10.05;3.42;;;;;;;34.72;34.74;99946.25;4934857;28;96911;-81
2021/07/27 07:48:26;;;;;;;4.97;2.95;;;;;;;33.45;36.28;99946.56;4903614;28;97034;-78
2021/07/27 07:50:52;;;;;;;8.75;3.22;;;;;;;33.65;36.48;99953.91;4901938;28;101596;-81
2021/07/27 07:53:17;;;;;;;6.32;3.15;;;;;;;33.96;36.15;99948.59;4911334;28;98595;-84
2021/07/27 07:55:43;;;;;;;4.32;3.10;;;;;;;33.80;36.65;99955.38;4927705;28;96883;-79
2021/07/27 07:58:08;;;;;;;5.90;3.20;;;;;;;36.04;33.82;99960.69;4897852;28;97038;-80
2021/07/27 08:00:34;;;;;;;10.00;3.35;;;;;;;37.66;31.80;99948.88;4910924;28;101728;-81
2021/07/27 08:03:03;;;;;;;5.60;3.08;;;;;;;38.02;30.89;99950.53;4928359;28;101599;-80
2021/07/27 08:05:29;;;;;;;15.35;3.55;;;;;;;38.49;31.19;99949.59;4913207;28;97165;-83
2021/07/27 08:07:55;;;;;;;7.60;3.15;;;;;;;37.91;31.92;99956.84;4907162;28;97425;-83
2021/07/27 08:10:21;;;;;;;6.30;3.28;;;;;;;37.91;32.22;99954.09;4916736;28;97883;-81
2021/07/27 08:12:47;;;;;;;10.18;3.00;;;;;;;39.10;30.52;99961.69;4878382;28;101861;-82
2021/07/27 08:15:18;;;;;;;8.90;3.70;;;;;;;39.22;29.49;99956.13;4929795;28;97100;-82
2021/07/27 08:17:44;;;;;;;6.35;3.00;;;;;;;38.49;30.39;99957.81;4945951;28;96776;-83
2021/07/27 08:20:11;;;;;;;6.05;3.10;;;;;;;38.50;31.31;99957.56;4930395;28;97936;-82
2021/07/27 08:22:38;;;;;;;9.80;3.80;;;;;;;39.52;30.05;99966.75;4897166;28;101658;-82
2021/07/27 08:25:05;;;;;;;9.63;2.95;;;;;;;39.07;30.72;99967.69;4912766;28;97222;-82
2021/07/27 08:27:31;;;;;;;9.65;3.28;;;;;;;38.41;31.33;99963.69;4913339;28;97565;-82
2021/07/27 08:29:56;;;;;;;8.90;3.10;;;;;;;38.46;31.15;99967.34;4911862;28;101277;-83
2021/07/27 08:32:22;;;;;;;12.20;3.58;;;;;;;37.90;31.25;99968.00;4924127;28;100911;-82
2021/07/27 08:34:47;;;;;;;7.22;3.50;;;;;;;37.07;31.87;99975.34;4910834;28;97260;-82
2021/07/27 08:37:13;;;;;;;12.25;3.55;;;;;;;37.17;31.49;99975.59;4926890;28;97279;-82
2021/07/27 08:39:39;;;;;;;5.15;3.05;;;;;;;34.54;34.67;99980.47;4925757;28;100094;-87
2021/07/27 08:42:05;;;;;;;4.65;2.67;;;;;;;35.75;33.76;99974.00;4910209;28;99706;-84
2021/07/27 08:44:34;;;;;;;7.00;3.30;;;;;;;35.99;33.29;99980.47;4917275;28;96851;-83
2021/07/27 08:47:04;;;;;;;6.78;3.20;;;;;;;35.21;34.27;99977.38;4929592;28;97143;-83
2021/07/27 08:49:30;;;;;;;6.55;3.25;;;;;;;34.89;34.26;99975.47;4912115;28;101456;-83
2021/07/27 08:51:56;;;;;;;8.40;3.38;;;;;;;35.66;33.37;99975.31;4903796;28;101301;-83
2021/07/27 08:54:21;;;;;;;5.00;3.38;;;;;;;36.03;33.01;99978.09;4932128;28;97217;-84
2021/07/27 08:56:48;;;;;;;5.95;3.00;;;;;;;36.37;32.52;99975.84;4892497;28;97968;-83
2021/07/27 08:59:15;;;;;;;12.05;3.42;;;;;;;36.13;32.82;99978.44;4895787;28;101967;-82
2021/07/27 09:01:40;;;;;;;5.50;2.90;;;;;;;35.28;34.11;99981.72;4910755;28;98141;-83
2021/07/27 09:04:06;;;;;;;6.03;3.22;;;;;;;35.41;33.70;99983.53;4935274;28;97093;-82
2021/07/27 09:06:31;;;;;;;6.07;3.08;;;;;;;36.13;32.59;99983.91;4930409;28;97374;-83
2021/07/27 09:09:15;;;;;;;5.95;3.13;;;;;;;36.71;31.54;99985.28;4898272;28;100680;-83
2021/07/27 09:11:46;;;;;;;7.30;3.10;;;;;;;35.91;31.98;99982.66;4925412;28;97970;-83
2021/07/27 09:14:22;;;;;;;5.50;3.20;;;;;;;36.91;30.92;99983.09;4929066;28;97800;-83
2021/07/27 09:16:50;;;;;;;6.22;2.90;;;;;;;36.18;31.61;99986.78;4933699;28;97479;-84
2021/07/27 09:19:16;;;;;;;5.38;3.40;;;;;;;35.18;33.32;99986.84;4894392;28;101379;-84
2021/07/27 09:21:46;;;;;;;8.02;2.80;;;;;;;34.44;34.09;99983.66;4887971;28;101095;-85
2021/07/27 09:24:22;;;;;;;4.75;2.90;;;;;;;34.39;33.97;99986.19;4909802;28;96816;-83
2021/07/27 09:26:59;;;;;;;5.43;3.28;;;;;;;33.80;34.71;99987.16;4890016;28;96944;-83
2021/07/27 09:29:27;;;;;;;4.40;3.20;;;;;;;34.06;34.65;99986.28;4924242;28;101545;-85
2021/07/27 09:31:58;;;;;;;6.32;2.72;;;;;;;34.55;34.19;99987.59;4906532;28;101634;-84
2021/07/27 09:34:28;;;;;;;6.03;3.20;;;;;;;34.98;33.45;99984.22;4913151;28;96772;-86
2021/07/27 09:37:05;;;;;;;4.15;3.22;;;;;;;34.67;33.80;99985.88;4920750;28;97255;-84
2021/07/27 09:39:31;;;;;;;8.65;3.28;;;;;;;34.13;34.21;99992.56;4908056;28;101514;-85
2021/07/27 09:42:06;;;;;;;4.18;3.00;;;;;;;34.97;33.26;99989.88;4898530;28;101279;-84
2021/07/27 09:44:32;;;;;;;6.13;3.17;;;;;;;35.68;32.83;99986.88;4912750;28;97221;-85
2021/07/27 09:47:00;;;;;;;3.60;3.00;;;;;;;35.88;32.88;99986.66;4930217;28;96857;-85
2021/07/27 09:49:26;;;;;;;19.98;3.38;;;;;;;36.06;32.40;99994.06;4898103;28;101593;-84
2021/07/27 09:51:52;;;;;;;3.10;2.80;;;;;;;36.20;32.35;99989.28;4914408;28;97676;-86
2021/07/27 09:54:23;;;;;;;6.45;3.22;;;;;;;35.68;32.67;99989.59;4924665;28;97280;-81
2021/07/27 09:56:49;;;;;;;5.53;2.90;;;;;;;35.64;33.21;99995.75;4925739;28;97060;-80
2021/07/27 09:59:16;;;;;;;5.72;2.92;;;;;;;35.74;32.77;99996.03;4927580;28;101459;-88
2021/07/27 10:01:50;;;;;;;3.85;2.65;;;;;;;35.87;32.48;99992.34;4929931;28;101607;-83
2021/07/27 10:04:24;;;;;;;5.13;2.47;;;;;;;36.14;32.36;99995.66;4901144;28;96978;-83
2021/07/27 10:06:50;;;;;;;5.43;3.45;;;;;;;36.17;33.11;99984.28;4911307;28;97206;-85
2021/07/27 10:09:23;;;;;;;7.88;3.42;;;;;;;36.37;32.89;99987.59;4913459;28;102055;-84
2021/07/27 10:11:49;;;;;;;4.53;3.17;;;;;;;36.25;32.18;99987.53;4929312;28;100007;-83
2021/07/27 10:14:16;;;;;;;6.30;3.78;;;;;;;35.89;32.47;99984.75;4924841;28;97183;-84
2021/07/27 10:16:46;;;;;;;8.00;3.03;;;;;;;35.25;32.66;99982.16;4925941;28;97397;-83
2021/07/27 10:19:17;;;;;;;4.13;3.17;;;;;;;34.62;34.61;99982.16;4911146;28;101476;-83
2021/07/27 10:21:44;;;;;;;9.27;2.85;;;;;;;34.63;33.71;99981.91;4923687;28;101796;-80
2021/07/27 10:24:23;;;;;;;6.50;2.95;;;;;;;34.62;33.60;99971.25;4910325;28;96835;-82
2021/07/27 10:26:50;;;;;;;5.47;2.92;;;;;;;34.96;33.38;99966.41;4913908;28;96989;-82
2021/07/27 10:29:29;;;;;;;6.57;3.22;;;;;;;34.94;34.69;99977.56;4927498;28;98119;-86
2021/07/27 10:31:54;;;;;;;2.97;2.70;;;;;;;34.70;34.18;99971.84;4914521;28;101818;-85
2021/07/27 10:34:31;;;;;;;6.93;3.08;;;;;;;34.38;34.46;99968.16;4905173;28;97147;-86
2021/07/27 10:37:05;;;;;;;7.55;2.75;;;;;;;34.41;34.69;99967.75;4925054;28;97236;-89
2021/07/27 10:39:31;;;;;;;3.47;2.90;;;;;;;34.53;34.46;99970.63;4929583;28;97710;-86
2021/07/27 10:42:06;;;;;;;7.63;2.70;;;;;;;34.23;33.57;99968.44;4897071;28;101329;-88
2021/07/27 10:44:36;;;;;;;4.75;2.95;;;;;;;34.04;34.23;99963.91;4928047;28;96704;-86
2021/07/27 10:47:02;;;;;;;5.32;3.17;;;;;;;33.69;34.89;99955.19;4930109;28;96882;-86
2021/07/27 10:49:28;;;;;;;4.32;3.08;;;;;;;33.42;34.60;99968.75;4926824;28;101375;-87
2021/07/27 10:51:58;;;;;;;7.00;2.95;;;;;;;33.23;36.00;99965.00;4925415;28;100514;-85
2021/07/27 10:54:33;;;;;;;;;;;;;;;33.09;36.78;99966.88;4914214;28;96728;-90
2021/07/27 10:56:59;;;;;;;3.92;2.90;;;;;;;33.25;36.33;99953.91;4902229;28;96921;-87
2021/07/27 10:59:26;;;;;;;3.72;2.67;;;;;;;33.18;36.27;99953.06;4926706;28;102138;-89
2021/07/27 11:01:54;;;;;;;4.03;2.72;;;;;;;33.32;36.79;99958.31;4894018;28;101534;-86
2021/07/27 11:04:25;;;;;;;5.15;2.88;;;;;;;33.19;36.27;99958.28;4900670;28;97102;-86
2021/07/27 11:06:51;;;;;;;5.72;2.70;;;;;;;33.00;36.21;99959.97;4908630;28;96795;-85
2021/07/27 11:09:17;;;;;;;4.57;3.33;;;;;;;32.85;35.63;99959.28;4893811;28;101203;-86
2021/07/27 11:11:46;;;;;;;3.83;3.33;;;;;;;32.73;36.30;99959.06;4929587;28;98025;-85
2021/07/27 11:14:19;;;;;;;6.78;2.47;;;;;;;32.73;36.29;99963.66;4913531;28;97269;-87
2021/07/27 11:16:45;;;;;;;3.55;2.50;;;;;;;32.71;35.81;99965.72;4928109;28;97675;-86
2021/07/27 11:19:20;;;;;;;3.63;2.90;;;;;;;32.65;36.34;99953.78;4881710;28;101484;-86
2021/07/27 11:21:46;;;;;;;4.25;2.63;;;;;;;32.41;37.32;99955.16;4897884;28;101035;-83
2021/07/27 11:24:12;;;;;;;5.47;2.97;;;;;;;32.30;37.50;99962.00;4930991;28;96812;-82
2021/07/27 11:26:37;;;;;;;7.10;2.90;;;;;;;32.33;37.59;99966.19;4913805;28;96965;-92
2021/07/27 11:29:10;;;;;;;7.20;3.10;;;;;;;32.42;37.28;99963.09;4932253;28;98889;-93
2021/07/27 11:31:52;;;;;;;7.43;3.15;;;;;;;32.29;37.39;99962.19;4916568;28;101386;-93
2021/07/27 11:34:31;;;;;;;4.40;2.72;;;;;;;32.37;37.23;99957.41;4900844;28;97134;-93
2021/07/27 11:36:58;;;;;;;6.47;3.43;;;;;;;32.25;37.73;99961.75;4922332;28;96948;-94
2021/07/27 11:39:24;;;;;;;6.68;3.15;;;;;;;32.38;37.33;99950.97;4918390;28;97697;-89
2021/07/27 11:42:01;;;;;;;5.47;2.70;;;;;;;32.31;37.73;99952.81;4929985;28;99532;-87
2021/07/27 11:44:27;;;;;;;5.25;2.90;;;;;;;32.40;38.05;99950.75;4898189;28;97098;-88
2021/07/27 11:46:53;;;;;;;10.52;4.10;;;;;;;32.56;39.39;99952.31;4914972;28;96874;-86